createdAt,value
2022-08-21T00:02:22.822Z,61.08
2022-08-21T00:04:57.394Z,61.23
2022-08-21T00:07:26.062Z,61.34
2022-08-21T00:09:54.308Z,61.45
2022-08-21T00:12:22.552Z,61.55
2022-08-21T00:14:50.366Z,61.65
2022-08-21T00:17:23.577Z,61.58
2022-08-21T00:19:51.342Z,61.84
2022-08-21T00:22:20.609Z,62.03
2022-08-21T00:24:48.593Z,62.12
2022-08-21T00:27:16.377Z,61.95
2022-08-21T00:29:44.183Z,62.01
2022-08-21T00:32:12.011Z,62.26
2022-08-21T00:34:39.811Z,62.43
2022-08-21T00:37:09.073Z,62.49
2022-08-21T00:39:37.015Z,62.55
2022-08-21T00:42:05.032Z,62.70
2022-08-21T00:44:33.586Z,62.85
2022-08-21T00:47:01.417Z,62.83
2022-08-21T00:49:29.194Z,62.91
2022-08-21T00:51:59.821Z,62.80
2022-08-21T00:54:30.956Z,63.04
2022-08-21T00:57:04.756Z,63.31
2022-08-21T00:59:36.182Z,63.24
2022-08-21T01:02:06.504Z,63.29
2022-08-21T01:04:35.177Z,63.57
2022-08-21T01:07:04.185Z,63.77
2022-08-21T01:09:32.634Z,63.55
2022-08-21T01:12:00.571Z,63.87
2022-08-21T01:14:29.647Z,63.89
2022-08-21T01:16:59.553Z,63.90
2022-08-21T01:19:27.921Z,64.05
2022-08-21T01:21:55.977Z,64.17
2022-08-21T01:24:23.965Z,64.23
2022-08-21T01:26:52.447Z,64.31
2022-08-21T01:29:39.749Z,64.35
2022-08-21T01:32:13.719Z,64.42
2022-08-21T01:34:45.240Z,64.69
2022-08-21T01:37:14.189Z,64.52
2022-08-21T01:39:43.598Z,64.67
2022-08-21T01:42:12.039Z,64.85
2022-08-21T01:44:40.292Z,64.87
2022-08-21T01:47:10.137Z,65.15
2022-08-21T01:49:38.740Z,65.27
2022-08-21T01:52:07.130Z,65.26
2022-08-21T01:54:37.929Z,65.35
2022-08-21T01:57:05.987Z,65.37
2022-08-21T01:59:34.412Z,65.50
2022-08-21T02:02:02.200Z,65.60
2022-08-21T02:04:29.994Z,65.49
2022-08-21T02:06:57.785Z,65.57
2022-08-21T02:09:25.528Z,65.52
2022-08-21T02:11:53.497Z,65.66
2022-08-21T02:14:32.080Z,65.72
2022-08-21T02:17:08.693Z,65.82
2022-08-21T02:19:40.147Z,65.80
2022-08-21T02:22:11.620Z,65.96
2022-08-21T02:24:54.289Z,66.03
2022-08-21T02:27:26.510Z,66.03
2022-08-21T02:29:58.077Z,66.14
2022-08-21T02:32:26.758Z,66.20
2022-08-21T02:34:54.995Z,66.31
2022-08-21T02:37:24.049Z,66.56
2022-08-21T02:39:52.294Z,66.51
2022-08-21T02:42:21.450Z,66.76
2022-08-21T02:44:49.249Z,66.48
2022-08-21T02:47:17.196Z,66.89
2022-08-21T02:49:45.059Z,66.74
2022-08-21T02:52:13.037Z,66.64
2022-08-21T02:54:41.410Z,66.69
2022-08-21T02:57:09.430Z,66.76
2022-08-21T02:59:37.546Z,66.85
2022-08-21T03:02:05.369Z,67.04
2022-08-21T03:04:33.577Z,67.20
2022-08-21T03:07:01.530Z,67.16
2022-08-21T03:09:29.589Z,67.44
2022-08-21T03:11:58.715Z,67.62
2022-08-21T03:14:26.608Z,67.90
2022-08-21T03:16:54.792Z,67.59
2022-08-21T03:19:22.526Z,67.81
2022-08-21T03:21:50.302Z,67.80
2022-08-21T03:24:19.235Z,67.75
2022-08-21T03:26:49.652Z,68.07
2022-08-21T03:29:17.843Z,68.16
2022-08-21T03:31:45.679Z,68.16
2022-08-21T03:34:13.482Z,68.01
2022-08-21T03:36:41.397Z,68.20
2022-08-21T03:39:09.212Z,68.17
2022-08-21T03:41:37.893Z,68.11
2022-08-21T03:44:06.467Z,68.29
2022-08-21T03:46:35.139Z,68.30
2022-08-21T03:49:03.396Z,68.36
2022-08-21T03:51:33.326Z,68.38
2022-08-21T03:54:01.046Z,68.28
2022-08-21T03:56:29.148Z,68.45
2022-08-21T03:58:57.463Z,68.52
2022-08-21T04:01:25.523Z,68.47
2022-08-21T04:03:53.390Z,68.56
2022-08-21T04:06:21.213Z,68.55
2022-08-21T04:08:49.514Z,68.66
2022-08-21T04:11:17.812Z,68.43
2022-08-21T04:13:46.152Z,68.64
2022-08-21T04:16:14.895Z,68.61
2022-08-21T04:18:43.716Z,68.66
2022-08-21T04:21:12.698Z,68.56
2022-08-21T04:23:41.560Z,68.64
2022-08-21T04:26:10.002Z,68.62
2022-08-21T04:28:37.826Z,68.73
2022-08-21T04:31:05.609Z,68.74
2022-08-21T04:33:33.396Z,68.88
2022-08-21T04:36:02.617Z,68.59
2022-08-21T04:38:37.532Z,68.53
2022-08-21T04:41:07.564Z,68.83
2022-08-21T04:43:35.910Z,68.60
2022-08-21T04:46:04.565Z,68.23
2022-08-21T04:48:36.816Z,68.32
2022-08-21T04:51:14.764Z,68.05
2022-08-21T04:53:50.427Z,68.05
2022-08-21T04:56:27.793Z,67.95
2022-08-21T04:58:59.310Z,67.71
2022-08-21T05:01:29.163Z,67.54
2022-08-21T05:04:00.065Z,67.77
2022-08-21T05:06:29.718Z,67.79
2022-08-21T05:09:02.135Z,67.64
2022-08-21T05:11:33.883Z,67.51
2022-08-21T05:14:01.685Z,67.30
2022-08-21T05:16:37.420Z,67.22
2022-08-21T05:19:07.370Z,66.98
2022-08-21T05:21:36.245Z,66.90
2022-08-21T05:24:04.372Z,66.75
2022-08-21T05:26:32.343Z,66.70
2022-08-21T05:29:01.082Z,66.79
2022-08-21T05:31:30.213Z,66.72
2022-08-21T05:33:58.053Z,66.62
2022-08-21T05:36:25.961Z,66.61
2022-08-21T05:38:54.715Z,66.45
2022-08-21T05:41:22.911Z,66.42
2022-08-21T05:43:50.852Z,66.09
2022-08-21T05:46:18.673Z,66.01
2022-08-21T05:48:46.520Z,65.81
2022-08-21T05:51:16.247Z,65.61
2022-08-21T05:53:44.879Z,65.74
2022-08-21T05:56:14.004Z,65.41
2022-08-21T05:58:42.259Z,65.21
2022-08-21T06:01:10.871Z,65.00
2022-08-21T06:03:40.546Z,64.75
2022-08-21T06:06:08.527Z,64.78
2022-08-21T06:08:36.799Z,64.78
2022-08-21T06:11:05.571Z,64.50
2022-08-21T06:13:33.787Z,64.38
2022-08-21T06:16:15.760Z,64.44
2022-08-21T06:18:46.060Z,64.36
2022-08-21T06:21:14.582Z,64.40
2022-08-21T06:23:43.332Z,64.01
2022-08-21T06:26:14.431Z,63.85
2022-08-21T06:28:43.173Z,63.90
2022-08-21T06:31:16.045Z,63.78
2022-08-21T06:33:44.354Z,63.63
2022-08-21T06:36:12.270Z,63.53
2022-08-21T06:38:40.402Z,63.36
2022-08-21T06:41:08.626Z,63.33
2022-08-21T06:43:39.702Z,63.12
2022-08-21T06:46:08.785Z,63.20
2022-08-21T06:48:36.877Z,63.09
2022-08-21T06:51:05.622Z,62.85
2022-08-21T06:53:34.046Z,62.69
2022-08-21T06:56:02.092Z,62.72
2022-08-21T06:58:32.456Z,62.22
2022-08-21T07:01:01.492Z,62.13
2022-08-21T07:03:31.439Z,61.88
2022-08-21T07:05:59.386Z,61.54
2022-08-21T07:08:29.526Z,61.17
2022-08-21T07:10:59.766Z,61.22
2022-08-21T07:13:28.382Z,60.85
2022-08-21T07:16:00.262Z,60.90
2022-08-21T07:18:32.393Z,60.79
2022-08-21T07:21:03.042Z,60.32
2022-08-21T07:23:38.938Z,59.73
2022-08-21T07:26:07.587Z,59.65
2022-08-21T07:28:35.553Z,59.12
2022-08-21T07:31:04.361Z,58.80
2022-08-21T07:33:33.791Z,58.29
2022-08-21T07:36:02.308Z,57.71
2022-08-21T07:38:30.369Z,57.35
2022-08-21T07:41:00.057Z,57.58
2022-08-21T07:43:29.437Z,56.86
2022-08-21T07:45:58.124Z,56.58
2022-08-21T07:48:25.953Z,56.11
2022-08-21T07:50:53.737Z,56.28
2022-08-21T07:53:21.496Z,55.99
2022-08-21T07:55:50.451Z,55.98
2022-08-21T07:58:18.226Z,55.24
2022-08-21T08:00:46.108Z,54.84
2022-08-21T08:03:13.961Z,54.18
2022-08-21T08:05:48.915Z,53.91
2022-08-21T08:08:17.908Z,53.41
2022-08-21T08:10:46.336Z,52.88
2022-08-21T08:13:14.275Z,53.12
2022-08-21T08:15:42.312Z,52.37
2022-08-21T08:18:10.735Z,52.23
2022-08-21T08:20:38.559Z,52.01
2022-08-21T08:23:06.486Z,51.81
2022-08-21T08:25:36.609Z,51.67
2022-08-21T08:28:16.266Z,51.23
2022-08-21T08:30:47.603Z,50.83
2022-08-21T08:33:16.386Z,50.28
2022-08-21T08:35:45.481Z,50.06
2022-08-21T08:38:13.434Z,49.93
2022-08-21T08:40:54.117Z,49.40
2022-08-21T08:43:23.522Z,49.15
2022-08-21T08:45:55.504Z,48.78
2022-08-21T08:48:47.190Z,48.73
2022-08-21T08:51:55.912Z,48.44
2022-08-21T08:54:33.982Z,48.38
2022-08-21T08:57:04.800Z,46.30
2022-08-21T08:59:41.038Z,44.96
2022-08-21T09:02:15.643Z,44.02
2022-08-21T09:04:45.413Z,41.96
2022-08-21T09:07:48.328Z,40.06
2022-08-21T09:10:19.208Z,38.08
2022-08-21T09:13:06.484Z,35.92
2022-08-21T09:15:39.942Z,34.08
2022-08-21T09:18:22.647Z,31.45
2022-08-21T09:21:38.520Z,29.72
2022-08-21T09:24:25.379Z,27.84
2022-08-21T09:27:13.336Z,26.37
2022-08-21T09:29:49.056Z,23.72
2022-08-21T09:32:24.355Z,22.51
2022-08-21T09:35:10.127Z,21.61
2022-08-21T09:37:50.158Z,20.20
2022-08-21T09:40:42.693Z,20.09
2022-08-21T09:43:10.437Z,20.49
2022-08-21T09:45:39.680Z,19.92
2022-08-21T09:48:18.712Z,18.89
2022-08-21T09:50:48.535Z,18.36
2022-08-21T09:53:25.920Z,18.09
2022-08-21T09:56:14.570Z,17.35
2022-08-21T09:58:50.439Z,16.65
2022-08-21T10:01:24.941Z,16.48
2022-08-21T10:04:06.370Z,15.78
2022-08-21T10:06:36.002Z,15.22
2022-08-21T10:09:20.053Z,14.82
2022-08-21T10:12:02.314Z,14.41
2022-08-21T10:14:48.924Z,14.52
2022-08-21T10:17:27.379Z,14.54
2022-08-21T10:20:05.924Z,14.54
2022-08-21T10:22:36.020Z,15.14
2022-08-21T10:25:18.599Z,15.95
2022-08-21T10:28:13.938Z,16.47
2022-08-21T10:30:49.199Z,17.17
2022-08-21T10:33:36.620Z,17.99
2022-08-21T10:36:15.978Z,18.89
2022-08-21T10:39:12.052Z,19.66
2022-08-21T10:42:00.962Z,20.49
2022-08-21T10:44:40.860Z,19.74
2022-08-21T10:47:27.088Z,19.50
2022-08-21T10:50:00.803Z,19.24
2022-08-21T10:52:31.590Z,18.90
2022-08-21T10:55:11.204Z,18.55
2022-08-21T10:57:51.196Z,18.66
2022-08-21T11:00:24.426Z,18.65
2022-08-21T11:03:08.580Z,18.71
2022-08-21T11:05:59.297Z,18.88
2022-08-21T11:08:39.367Z,19.26
2022-08-21T11:11:25.313Z,19.69
2022-08-21T11:14:49.730Z,20.32
2022-08-21T11:17:24.455Z,20.85
2022-08-21T11:20:05.918Z,21.12
2022-08-21T11:23:03.739Z,21.05
2022-08-21T11:25:38.384Z,21.63
2022-08-21T11:28:14.498Z,21.69
2022-08-21T11:30:58.111Z,21.56
2022-08-21T11:34:04.812Z,21.70
2022-08-21T11:37:01.310Z,21.74
2022-08-21T11:39:57.150Z,21.75
2022-08-21T11:49:34.390Z,22.59
2022-08-21T11:52:20.338Z,23.17
2022-08-21T11:54:56.021Z,23.03
2022-08-21T11:57:44.928Z,23.75
2022-08-21T12:00:42.548Z,24.37
2022-08-21T12:03:15.740Z,24.72
2022-08-21T12:05:45.920Z,25.18
2022-08-21T12:08:16.658Z,25.21
2022-08-21T12:11:01.930Z,25.59
2022-08-21T12:13:40.488Z,25.64
2022-08-21T12:16:13.600Z,26.00
2022-08-21T12:18:42.872Z,26.23
2022-08-21T12:21:28.633Z,26.67
2022-08-21T12:24:02.707Z,27.07
2022-08-21T12:26:37.040Z,27.62
2022-08-21T12:29:38.464Z,27.91
2022-08-21T12:32:12.447Z,28.51
2022-08-21T12:35:04.043Z,28.56
2022-08-21T12:37:42.420Z,28.99
2022-08-21T12:40:25.646Z,29.50
2022-08-21T12:42:58.828Z,29.65
2022-08-21T12:45:43.087Z,30.08
2022-08-21T12:48:19.935Z,30.02
2022-08-21T12:50:53.507Z,30.35
2022-08-21T12:53:35.186Z,30.58
2022-08-21T12:56:04.754Z,30.85
2022-08-21T12:58:32.780Z,30.86
2022-08-21T13:01:03.138Z,30.83
2022-08-21T13:03:32.254Z,30.74
2022-08-21T13:06:00.351Z,30.92
2022-08-21T13:08:28.302Z,31.07
2022-08-21T13:11:00.625Z,30.94
2022-08-21T13:13:47.167Z,31.09
2022-08-21T13:16:32.000Z,31.22
2022-08-21T13:19:13.215Z,32.05
2022-08-21T13:21:43.924Z,32.01
2022-08-21T13:24:45.918Z,32.34
2022-08-21T13:27:34.939Z,32.43
2022-08-21T13:30:11.127Z,32.49
2022-08-21T13:32:46.329Z,32.81
2022-08-21T13:35:21.132Z,32.90
2022-08-21T13:37:52.073Z,33.10
2022-08-21T13:40:25.990Z,32.98
2022-08-21T13:42:53.866Z,33.31
2022-08-21T13:45:28.599Z,33.19
2022-08-21T13:47:56.519Z,33.41
2022-08-21T13:50:25.339Z,33.27
2022-08-21T13:52:58.918Z,33.16
2022-08-21T13:55:36.408Z,33.27
2022-08-21T13:58:05.630Z,33.54
2022-08-21T14:00:36.537Z,33.83
2022-08-21T14:03:10.383Z,33.79
2022-08-21T14:05:45.512Z,34.03
2022-08-21T14:08:30.029Z,34.22
2022-08-21T14:10:58.866Z,34.59
2022-08-21T14:13:39.011Z,34.49
2022-08-21T14:16:16.494Z,34.47
2022-08-21T14:19:08.737Z,34.68
2022-08-21T14:21:40.773Z,34.91
2022-08-21T14:24:12.919Z,35.31
2022-08-21T14:26:56.084Z,35.65
2022-08-21T14:29:27.281Z,35.61
2022-08-21T14:32:01.468Z,35.72
2022-08-21T14:34:35.882Z,35.83
2022-08-21T14:37:03.970Z,36.20
2022-08-21T14:39:31.711Z,36.20
2022-08-21T14:42:01.868Z,36.48
2022-08-21T14:44:30.070Z,36.78
2022-08-21T14:46:57.980Z,36.98
2022-08-21T14:49:28.372Z,37.48
2022-08-21T14:51:58.853Z,37.47
2022-08-21T14:54:31.720Z,37.87
2022-08-21T14:57:05.722Z,38.34
2022-08-21T14:59:34.580Z,38.50
2022-08-21T15:02:05.245Z,38.71
2022-08-21T15:04:34.561Z,38.90
2022-08-21T15:07:02.989Z,39.05
2022-08-21T15:09:30.911Z,39.16
2022-08-21T15:12:00.669Z,39.30
2022-08-21T15:14:30.844Z,39.25
2022-08-21T15:16:58.983Z,39.41
2022-08-21T15:19:27.319Z,39.66
2022-08-21T15:21:55.136Z,39.49
2022-08-21T15:24:23.227Z,39.87
2022-08-21T15:26:52.531Z,39.53
2022-08-21T15:29:22.849Z,39.82
2022-08-21T15:31:59.618Z,39.98
2022-08-21T15:34:29.915Z,40.32
2022-08-21T15:36:58.835Z,40.38
2022-08-21T15:39:31.345Z,40.56
2022-08-21T15:42:10.362Z,40.59
2022-08-21T15:44:40.182Z,40.75
2022-08-21T15:47:13.978Z,40.91
2022-08-21T15:49:45.987Z,40.98
2022-08-21T15:52:14.927Z,41.28
2022-08-21T15:54:42.792Z,41.34
2022-08-21T15:57:13.635Z,41.42
2022-08-21T15:59:45.180Z,41.57
2022-08-21T16:02:25.416Z,41.69
2022-08-21T16:04:53.628Z,41.91
2022-08-21T16:07:21.574Z,42.03
2022-08-21T16:09:49.794Z,42.23
2022-08-21T16:12:45.096Z,42.35
2022-08-21T16:15:20.605Z,42.42
2022-08-21T16:17:50.562Z,42.51
2022-08-21T16:20:25.078Z,42.59
2022-08-21T16:22:56.943Z,42.79
2022-08-21T16:25:25.603Z,42.91
2022-08-21T16:27:59.567Z,43.00
2022-08-21T16:30:28.708Z,43.14
2022-08-21T16:32:56.884Z,43.24
2022-08-21T16:35:25.217Z,43.49
2022-08-21T16:37:53.616Z,43.47
2022-08-21T16:40:27.304Z,43.76
2022-08-21T16:42:56.310Z,43.80
2022-08-21T16:45:24.241Z,43.96
2022-08-21T16:47:51.987Z,44.27
2022-08-21T16:50:23.854Z,44.51
2022-08-21T16:52:52.324Z,44.79
2022-08-21T16:55:20.662Z,45.00
2022-08-21T16:57:48.717Z,45.20
2022-08-21T17:00:16.770Z,45.36
2022-08-21T17:02:47.903Z,45.60
2022-08-21T17:05:16.478Z,45.73
2022-08-21T17:07:44.451Z,45.95
2022-08-21T17:10:14.735Z,46.27
2022-08-21T17:12:43.907Z,46.54
2022-08-21T17:15:23.958Z,46.75
2022-08-21T17:17:52.239Z,46.98
2022-08-21T17:20:20.987Z,47.09
2022-08-21T17:22:49.112Z,47.36
2022-08-21T17:25:17.295Z,47.55
2022-08-21T17:27:47.275Z,47.84
2022-08-21T17:30:16.465Z,48.23
2022-08-21T17:32:46.164Z,48.60
2022-08-21T17:35:14.333Z,48.57
2022-08-21T17:37:42.497Z,48.69
2022-08-21T17:40:14.347Z,48.92
2022-08-21T17:42:43.960Z,49.05
2022-08-21T17:45:14.560Z,49.27
2022-08-21T17:47:42.857Z,49.48
2022-08-21T17:50:12.725Z,49.61
2022-08-21T17:52:40.616Z,49.95
2022-08-21T17:55:08.770Z,50.05
2022-08-21T17:57:37.050Z,50.16
2022-08-21T18:00:07.697Z,50.42
2022-08-21T18:02:40.969Z,50.43
2022-08-21T18:05:11.760Z,50.74
2022-08-21T18:07:41.078Z,50.92
2022-08-21T18:10:11.583Z,50.97
2022-08-21T18:12:41.860Z,51.32
2022-08-21T18:15:16.242Z,51.49
2022-08-21T18:17:49.570Z,51.71
2022-08-21T18:20:20.159Z,51.74
2022-08-21T18:22:48.048Z,52.03
2022-08-21T18:25:17.009Z,52.11
2022-08-21T18:27:46.329Z,52.13
2022-08-21T18:30:20.120Z,52.35
2022-08-21T18:32:48.340Z,52.68
2022-08-21T18:35:16.965Z,52.64
2022-08-21T18:37:45.104Z,52.97
2022-08-21T18:40:15.676Z,53.01
2022-08-21T18:42:55.276Z,53.32
2022-08-21T18:45:24.639Z,53.47
2022-08-21T18:47:54.481Z,53.38
2022-08-21T18:50:26.462Z,53.81
2022-08-21T18:52:54.952Z,53.85
2022-08-21T18:55:24.588Z,54.02
2022-08-21T18:57:54.763Z,54.12
2022-08-21T19:00:27.395Z,54.38
2022-08-21T19:02:55.423Z,54.36
2022-08-21T19:05:24.316Z,54.59
2022-08-21T19:07:53.732Z,54.72
2022-08-21T19:10:27.796Z,54.91
2022-08-21T19:12:59.619Z,54.85
2022-08-21T19:15:28.559Z,55.14
2022-08-21T19:17:59.621Z,55.29
2022-08-21T19:20:30.374Z,55.22
2022-08-21T19:22:58.431Z,55.38
2022-08-21T19:25:33.568Z,55.51
2022-08-21T19:28:11.298Z,55.62
2022-08-21T19:30:45.992Z,55.90
2022-08-21T19:33:34.910Z,55.85
2022-08-21T19:36:05.152Z,56.04
2022-08-21T19:38:33.309Z,56.06
2022-08-21T19:41:01.804Z,56.32
2022-08-21T19:43:32.244Z,56.43
2022-08-21T19:46:03.153Z,56.70
2022-08-21T19:48:31.196Z,56.74
2022-08-21T19:50:59.032Z,56.88
2022-08-21T19:53:27.071Z,57.20
2022-08-21T19:55:55.213Z,57.28
2022-08-21T19:58:38.495Z,57.21
2022-08-21T20:01:11.521Z,57.41
2022-08-21T20:03:53.729Z,57.71
2022-08-21T20:06:24.064Z,57.83
2022-08-21T20:08:54.780Z,58.05
2022-08-21T20:11:47.227Z,58.07
2022-08-21T20:14:18.790Z,58.29
2022-08-21T20:16:48.501Z,58.45
2022-08-21T20:19:22.278Z,58.44
2022-08-21T20:21:50.128Z,58.74
2022-08-21T20:24:17.981Z,58.74
2022-08-21T20:29:39.157Z,59.10
2022-08-21T20:32:24.495Z,59.19
2022-08-21T20:37:40.708Z,59.54
2022-08-21T20:40:11.535Z,59.52
2022-08-21T20:42:44.831Z,59.66
2022-08-21T20:45:34.529Z,59.87
2022-08-21T20:48:11.660Z,59.85
2022-08-21T20:50:44.232Z,59.92
2022-08-21T20:53:53.970Z,60.00
2022-08-21T20:56:38.313Z,60.24
2022-08-21T20:59:34.267Z,60.50
2022-08-21T21:02:19.660Z,60.68
2022-08-21T21:05:12.315Z,60.86
2022-08-21T21:07:55.291Z,61.01
2022-08-21T21:10:53.460Z,61.13
2022-08-21T21:13:24.928Z,61.26
2022-08-21T21:15:56.705Z,61.28
2022-08-21T21:18:44.444Z,61.44
2022-08-21T21:21:19.418Z,61.60
2022-08-21T21:24:07.497Z,61.72
2022-08-21T21:26:48.621Z,61.69
2022-08-21T21:29:29.811Z,61.86
2022-08-21T21:31:57.950Z,62.05
2022-08-21T21:34:28.091Z,62.01
2022-08-21T21:37:08.972Z,62.22
2022-08-21T21:39:57.337Z,62.34
2022-08-21T21:42:49.330Z,62.35
2022-08-21T21:45:25.969Z,62.44
2022-08-21T21:48:21.497Z,62.45
2022-08-21T21:51:02.407Z,62.67
2022-08-21T21:53:55.471Z,62.85
2022-08-21T21:56:49.387Z,62.88
2022-08-21T21:59:47.074Z,63.02
2022-08-21T22:02:33.277Z,63.05
2022-08-21T22:05:19.634Z,63.16
2022-08-21T22:07:58.007Z,63.24
2022-08-21T22:10:32.404Z,63.33
2022-08-21T22:13:10.657Z,63.31
2022-08-21T22:15:41.359Z,63.49
2022-08-21T22:18:11.688Z,63.43
2022-08-21T22:20:49.102Z,63.88
2022-08-21T22:23:20.343Z,63.76
2022-08-21T22:25:52.301Z,63.85
2022-08-21T22:28:25.488Z,63.91
2022-08-21T22:30:57.224Z,63.93
2022-08-21T22:33:28.254Z,64.16
2022-08-21T22:35:58.855Z,64.09
2022-08-21T22:38:26.645Z,64.06
2022-08-21T22:41:21.431Z,64.47
2022-08-21T22:44:01.597Z,64.35
2022-08-21T22:46:51.999Z,64.43
2022-08-21T22:49:34.377Z,64.70
2022-08-21T22:52:12.416Z,64.75
2022-08-21T22:54:42.881Z,64.80
2022-08-21T22:57:26.765Z,65.01
2022-08-21T23:00:01.364Z,64.93
2022-08-21T23:02:38.048Z,65.04
2022-08-21T23:05:19.278Z,65.20
2022-08-21T23:07:49.832Z,65.30
2022-08-21T23:10:20.190Z,65.22
2022-08-21T23:12:50.872Z,65.50
2022-08-21T23:15:22.094Z,65.41
2022-08-21T23:17:58.808Z,65.36
2022-08-21T23:20:45.545Z,65.40
2022-08-21T23:23:27.137Z,65.76
2022-08-21T23:26:17.644Z,65.78
2022-08-21T23:29:25.079Z,65.90
2022-08-21T23:32:08.234Z,66.05
2022-08-21T23:34:46.428Z,66.05
2022-08-21T23:37:49.112Z,66.09
2022-08-21T23:40:51.076Z,66.18
2022-08-21T23:43:41.724Z,66.34
2022-08-21T23:46:33.810Z,66.51
2022-08-21T23:49:26.401Z,66.56
2022-08-21T23:52:14.206Z,66.50
2022-08-21T23:55:01.775Z,66.46
2022-08-21T23:57:51.211Z,66.67
